Time;durP1;ratioP1;P1;durP2;ratioP2;P2;SDS_P1;SDS_P2;PMS_P1;PMS_P2;Temp;Humidity;BMP_temperature;BMP_pressure;BME280_temperature;BME280_humidity;BME280_pressure;Samples;Min_cycle;Max_cycle;Signal;HPM_P1;HPM_P2
2022/11/15 00:00:43;;;;;;;0.10;0.10;;;;;;;16.94;62.15;101001.69;2041344;29;20047;-65
2022/11/15 00:02:04;;;;;;;0.00;0.00;;;;;;;16.94;62.09;101010.66;2038613;29;20119;-64
2022/11/15 00:03:28;;;;;;;0.00;0.00;;;;;;;16.96;62.10;101010.28;2037803;29;20051;-64
2022/11/15 00:04:51;;;;;;;0.03;0.03;;;;;;;16.96;62.14;101015.75;2038249;29;20082;-64
2022/11/15 00:06:12;;;;;;;0.00;0.00;;;;;;;16.96;62.26;101015.75;2032396;29;20082;-64
2022/11/15 00:07:33;;;;;;;0.08;0.08;;;;;;;16.96;62.16;101010.28;2032749;29;20044;-64
2022/11/15 00:09:14;;;;;;;0.00;0.00;;;;;;;16.93;62.13;101008.31;2038166;29;20777;-64
2022/11/15 00:10:35;;;;;;;0.10;0.10;;;;;;;16.94;62.22;101013.38;2037476;29;20055;-64
2022/11/15 00:11:57;;;;;;;0.00;0.00;;;;;;;16.95;62.26;101006.00;2039322;29;20048;-65
2022/11/15 00:13:18;;;;;;;0.00;0.00;;;;;;;16.93;62.17;101000.13;2038238;29;20389;-64
2022/11/15 00:14:39;;;;;;;0.10;0.10;;;;;;;16.95;62.01;101008.72;2036977;29;20460;-64
2022/11/15 00:16:01;;;;;;;0.00;0.00;;;;;;;16.94;61.93;100998.97;2037482;29;20258;-64
2022/11/15 00:17:22;;;;;;;0.10;0.10;;;;;;;16.94;62.09;101004.41;2039862;29;20091;-64
2022/11/15 00:18:43;;;;;;;0.08;0.08;;;;;;;16.95;62.28;101012.22;2040895;29;20072;-64
2022/11/15 00:20:12;;;;;;;0.10;0.10;;;;;;;16.95;62.10;101008.72;2031018;29;20056;-64
2022/11/15 00:21:32;;;;;;;0.00;0.00;;;;;;;16.95;62.08;101008.72;2029741;29;20066;-64
2022/11/15 00:22:54;;;;;;;0.00;0.00;;;;;;;16.95;62.34;101008.72;2041557;29;20058;-64
2022/11/15 00:24:15;;;;;;;0.00;0.00;;;;;;;16.95;62.17;101006.00;2035543;29;20062;-64
2022/11/15 00:25:35;;;;;;;0.00;0.00;;;;;;;16.95;62.20;101004.03;2039315;29;20154;-64
2022/11/15 00:26:57;;;;;;;0.10;0.10;;;;;;;16.95;62.18;100998.59;2031133;29;20556;-64
2022/11/15 00:28:17;;;;;;;0.08;0.08;;;;;;;16.95;62.02;100997.81;2032195;29;20678;-64
2022/11/15 00:29:43;;;;;;;0.00;0.00;;;;;;;16.95;62.25;101008.72;2037034;29;20060;-65
2022/11/15 00:31:06;;;;;;;0.05;0.05;;;;;;;16.96;61.96;101002.09;2042777;29;20059;-64
2022/11/15 00:32:31;;;;;;;0.00;0.00;;;;;;;16.95;61.95;101006.00;2038833;29;20155;-64
2022/11/15 00:33:52;;;;;;;0.10;0.10;;;;;;;16.95;62.12;101003.28;2040935;29;20098;-64
2022/11/15 00:35:14;;;;;;;0.05;0.05;;;;;;;16.95;62.42;100998.59;2037117;29;20062;-64
2022/11/15 00:36:35;;;;;;;0.10;0.10;;;;;;;16.95;62.10;101000.53;2037427;29;20089;-64
2022/11/15 00:37:55;;;;;;;0.10;0.10;;;;;;;16.95;62.19;101004.03;2039430;29;20058;-64
2022/11/15 00:39:16;;;;;;;;;;;;;;;16.77;62.53;100988.72;2040574;29;20047;-64
2022/11/15 00:40:38;;;;;;;0.00;0.00;;;;;;;16.87;62.24;100993.47;2041591;29;19993;-65
2022/11/15 00:41:59;;;;;;;0.10;0.10;;;;;;;16.90;62.16;100990.00;2037250;29;20063;-64
2022/11/15 00:43:19;;;;;;;0.00;0.00;;;;;;;16.92;62.25;100990.41;2038063;29;20054;-64
2022/11/15 00:44:40;;;;;;;0.08;0.08;;;;;;;16.91;62.14;100986.09;2034538;29;20299;-64
2022/11/15 00:46:02;;;;;;;0.00;0.00;;;;;;;16.92;62.16;100993.13;2041461;29;20051;-64
2022/11/15 00:47:23;;;;;;;0.05;0.05;;;;;;;16.92;61.97;100976.75;2030300;29;20063;-64
2022/11/15 00:48:44;;;;;;;0.10;0.10;;;;;;;16.92;62.14;100982.22;2035016;29;20117;-64
2022/11/15 00:50:06;;;;;;;0.05;0.05;;;;;;;16.94;62.13;100974.41;2039536;29;20732;-64
2022/11/15 00:51:28;;;;;;;0.10;0.10;;;;;;;16.93;62.25;100986.50;2037125;29;20058;-64
2022/11/15 00:52:49;;;;;;;0.00;0.00;;;;;;;16.93;61.99;100983.78;2035133;29;20056;-64
2022/11/15 00:54:10;;;;;;;0.10;0.10;;;;;;;16.92;62.07;100976.75;2036423;29;20765;-64
2022/11/15 00:55:30;;;;;;;0.10;0.10;;;;;;;16.92;61.99;100969.34;2041084;29;20542;-65
2022/11/15 00:56:51;;;;;;;0.08;0.08;;;;;;;16.92;62.18;100965.84;2039626;29;20059;-64
2022/11/15 00:58:12;;;;;;;0.00;0.00;;;;;;;16.92;62.02;100965.84;2040684;29;20215;-64
2022/11/15 00:59:34;;;;;;;0.08;0.08;;;;;;;16.92;62.13;100966.63;2039528;29;20415;-64
2022/11/15 01:00:55;;;;;;;0.08;0.08;;;;;;;16.92;62.05;100960.41;2037570;29;20559;-64
2022/11/15 01:02:17;;;;;;;0.05;0.05;;;;;;;16.93;62.15;100959.22;2030633;29;20088;-64
2022/11/15 01:03:39;;;;;;;0.10;0.10;;;;;;;16.91;62.15;100954.16;2038181;29;20051;-64
2022/11/15 01:05:00;;;;;;;0.10;0.10;;;;;;;16.93;62.08;100959.22;2040087;29;20104;-64
2022/11/15 01:06:22;;;;;;;0.10;0.10;;;;;;;16.93;62.12;100956.50;2033917;29;20542;-64
2022/11/15 01:07:45;;;;;;;0.10;0.10;;;;;;;16.93;62.27;100959.22;2037281;29;20055;-65
2022/11/15 01:09:06;;;;;;;0.10;0.10;;;;;;;16.93;62.09;100956.50;2036220;29;20059;-65
2022/11/15 01:10:26;;;;;;;0.00;0.00;;;;;;;16.93;62.25;100953.78;2040931;29;20063;-65
2022/11/15 01:11:47;;;;;;;0.10;0.10;;;;;;;16.92;62.02;100954.94;2036770;29;20134;-64
2022/11/15 01:13:08;;;;;;;0.00;0.00;;;;;;;16.93;62.16;100956.50;2037694;29;20467;-64
2022/11/15 01:14:29;;;;;;;0.10;0.10;;;;;;;16.90;62.29;100943.63;2035080;29;21555;-64
2022/11/15 01:15:49;;;;;;;0.00;0.00;;;;;;;16.92;62.08;100949.50;2037969;29;20086;-64
2022/11/15 01:17:11;;;;;;;0.00;0.00;;;;;;;16.92;62.24;100949.50;2040629;29;20050;-64
2022/11/15 01:18:32;;;;;;;0.10;0.10;;;;;;;16.90;62.35;100943.63;2037331;28;20058;-64
2022/11/15 01:19:52;;;;;;;0.03;0.03;;;;;;;16.92;62.17;100941.31;2039296;29;20062;-64
2022/11/15 01:21:16;;;;;;;0.10;0.10;;;;;;;16.93;62.08;100934.69;2038404;29;20063;-64
2022/11/15 01:22:37;;;;;;;0.00;0.00;;;;;;;16.92;62.06;100944.78;2038609;29;20092;-64
2022/11/15 01:24:00;;;;;;;0.10;0.10;;;;;;;16.92;62.11;100944.03;2039711;29;20051;-64
2022/11/15 01:25:20;;;;;;;0.10;0.10;;;;;;;16.90;62.03;100935.44;2035115;29;20182;-66
2022/11/15 01:26:42;;;;;;;0.00;0.00;;;;;;;16.89;62.01;100936.59;2033751;29;20397;-65
2022/11/15 01:28:02;;;;;;;0.00;0.00;;;;;;;16.91;61.99;100943.25;2041479;29;20526;-65
2022/11/15 01:29:24;;;;;;;0.10;0.10;;;;;;;16.93;62.00;100931.94;2038372;29;20396;-64
2022/11/15 01:30:44;;;;;;;0.00;0.00;;;;;;;16.92;62.25;100933.13;2039015;29;21935;-65
2022/11/15 01:32:05;;;;;;;0.10;0.10;;;;;;;16.92;62.23;100938.56;2042719;29;20060;-64
2022/11/15 01:33:26;;;;;;;0.10;0.10;;;;;;;16.92;62.08;100933.88;2041505;29;20184;-64
2022/11/15 01:34:48;;;;;;;0.00;0.00;;;;;;;16.92;62.16;100933.88;2040619;29;20117;-64
2022/11/15 01:36:12;;;;;;;0.05;0.05;;;;;;;16.92;62.13;100925.72;2037403;29;20070;-64
2022/11/15 01:37:33;;;;;;;0.10;0.10;;;;;;;16.92;62.21;100922.22;2039947;29;20466;-64
2022/11/15 01:38:56;;;;;;;0.10;0.10;;;;;;;16.92;62.10;100927.66;2037906;29;20095;-64
2022/11/15 01:40:19;;;;;;;0.00;0.00;;;;;;;16.93;62.14;100929.22;2042568;29;20097;-64
2022/11/15 01:41:39;;;;;;;0.10;0.10;;;;;;;16.92;61.93;100922.22;2039075;29;20066;-66
2022/11/15 01:43:00;;;;;;;0.05;0.05;;;;;;;16.90;62.46;100916.34;2038361;29;20687;-65
2022/11/15 01:44:43;;;;;;;0.10;0.10;;;;;;;16.86;62.22;100912.81;2038087;29;20047;-65
2022/11/15 01:46:12;;;;;;;0.10;0.10;;;;;;;16.90;62.15;100913.63;2036372;29;20108;-64
2022/11/15 01:47:38;;;;;;;0.10;0.10;;;;;;;16.90;62.17;100925.31;2041843;29;20458;-64
2022/11/15 01:49:01;;;;;;;0.10;0.10;;;;;;;16.90;62.32;100913.63;2041029;29;20376;-66
2022/11/15 01:50:27;;;;;;;0.00;0.00;;;;;;;16.91;62.28;100928.81;2039354;29;20061;-64
2022/11/15 01:51:48;;;;;;;0.10;0.10;;;;;;;16.90;62.26;100919.88;2039476;29;20082;-64
2022/11/15 01:53:10;;;;;;;0.08;0.08;;;;;;;16.90;62.23;100930.00;2037203;29;20059;-64
2022/11/15 01:54:32;;;;;;;0.00;0.00;;;;;;;16.90;62.16;100928.06;2038857;29;20055;-64
2022/11/15 01:55:54;;;;;;;0.00;0.00;;;;;;;16.91;62.11;100926.09;2044045;29;20081;-64
2022/11/15 01:57:15;;;;;;;0.10;0.10;;;;;;;16.89;62.21;100917.50;2040146;29;20055;-64
2022/11/15 01:58:37;;;;;;;0.00;0.00;;;;;;;16.91;62.12;100915.19;2040036;29;20051;-64
2022/11/15 02:00:00;;;;;;;0.10;0.10;;;;;;;16.88;61.94;100914.00;2037048;29;20131;-64
2022/11/15 02:01:22;;;;;;;0.10;0.10;;;;;;;16.90;62.26;100914.41;2037696;29;20522;-64
2022/11/15 02:02:44;;;;;;;0.08;0.08;;;;;;;16.90;62.19;100910.91;2042507;29;20529;-64
2022/11/15 02:04:10;;;;;;;0.00;0.00;;;;;;;16.91;62.09;100915.19;2040054;29;20106;-64
2022/11/15 02:05:33;;;;;;;0.10;0.10;;;;;;;16.89;62.27;100921.00;2037840;29;20535;-64
2022/11/15 02:06:53;;;;;;;0.10;0.10;;;;;;;16.89;62.44;100922.94;2038845;29;20526;-64
2022/11/15 02:08:19;;;;;;;0.05;0.05;;;;;;;16.90;62.00;100924.53;2036453;29;20067;-64
2022/11/15 02:09:41;;;;;;;0.10;0.10;;;;;;;16.89;62.30;100934.66;2040492;29;20100;-64
2022/11/15 02:11:08;;;;;;;0.10;0.10;;;;;;;16.89;62.15;100928.41;2039312;29;20174;-64
2022/11/15 02:12:30;;;;;;;0.10;0.10;;;;;;;16.89;62.36;100931.13;2037891;29;20058;-64
2022/11/15 02:13:52;;;;;;;0.03;0.03;;;;;;;16.90;62.24;100919.06;2037956;29;20062;-64
2022/11/15 02:15:14;;;;;;;0.00;0.00;;;;;;;16.90;62.21;100919.88;2036817;29;20106;-64
2022/11/15 02:16:44;;;;;;;0.10;0.10;;;;;;;16.89;62.11;100914.78;2037369;29;20808;-64
2022/11/15 02:18:14;;;;;;;0.03;0.03;;;;;;;16.88;62.12;100905.03;2041367;29;20600;-64
2022/11/15 02:20:06;;;;;;;0.10;0.10;;;;;;;16.83;62.17;100908.13;2042425;29;20050;-64
2022/11/15 02:21:36;;;;;;;0.00;0.00;;;;;;;16.85;62.31;100901.13;2039740;29;20773;-64
2022/11/15 02:23:34;;;;;;;0.00;0.00;;;;;;;16.82;62.28;100901.09;2037322;29;20103;-64
2022/11/15 02:25:04;;;;;;;0.10;0.10;;;;;;;16.81;62.26;100897.59;2020638;29;20045;-64
2022/11/15 02:27:04;;;;;;;0.10;0.10;;;;;;;16.79;62.31;100893.69;2032171;29;20066;-64
2022/11/15 02:28:58;;;;;;;0.08;0.08;;;;;;;16.72;62.37;100893.63;2038720;29;20550;-64
2022/11/15 02:30:38;;;;;;;0.10;0.10;;;;;;;16.77;62.37;100894.06;2036417;29;20095;-64
2022/11/15 02:32:05;;;;;;;0.10;0.10;;;;;;;16.80;62.33;100895.25;2036534;29;20048;-64
2022/11/15 02:33:36;;;;;;;0.10;0.10;;;;;;;16.81;62.20;100897.59;2040330;29;20080;-64
2022/11/15 02:35:02;;;;;;;0.00;0.00;;;;;;;16.83;62.04;100899.94;2037683;29;20091;-64
2022/11/15 02:36:36;;;;;;;0.03;0.03;;;;;;;16.81;62.28;100894.84;2037374;29;20074;-64
2022/11/15 02:38:00;;;;;;;0.10;0.10;;;;;;;16.82;62.29;100903.84;2037423;29;20051;-64
2022/11/15 02:39:27;;;;;;;0.10;0.10;;;;;;;16.83;62.13;100897.22;2038069;29;20047;-64
2022/11/15 02:40:55;;;;;;;0.03;0.03;;;;;;;16.82;62.25;100895.66;2041449;29;20086;-64
2022/11/15 02:44:05;;;;;;;0.08;0.08;;;;;;;16.80;62.46;100889.78;2036805;29;21079;-65
2022/11/15 02:45:33;;;;;;;0.00;0.00;;;;;;;16.81;62.31;100889.41;2038614;29;20094;-65
2022/11/15 02:48:46;;;;;;;0.10;0.10;;;;;;;16.80;62.30;100887.06;2021844;29;20076;-64
2022/11/15 02:50:08;;;;;;;0.05;0.05;;;;;;;16.82;62.40;100895.66;2041615;29;20503;-65
2022/11/15 02:51:29;;;;;;;0.10;0.10;;;;;;;16.82;62.35;100896.44;2037606;29;20051;-65
2022/11/15 02:52:50;;;;;;;0.10;0.10;;;;;;;16.82;62.55;100899.16;2030789;29;20079;-65
2022/11/15 02:54:15;;;;;;;0.00;0.00;;;;;;;16.84;62.24;100893.34;2037814;29;20162;-64
2022/11/15 02:55:39;;;;;;;0.05;0.05;;;;;;;16.83;62.31;100892.53;2035196;29;20534;-64
2022/11/15 02:57:05;;;;;;;0.10;0.10;;;;;;;16.84;62.34;100893.34;2036560;29;20055;-64
2022/11/15 02:58:48;;;;;;;0.00;0.00;;;;;;;16.78;62.30;100881.19;2041682;29;20058;-64
2022/11/15 03:00:13;;;;;;;0.10;0.10;;;;;;;16.81;62.36;100883.19;2035334;29;20571;-64
2022/11/15 03:01:49;;;;;;;0.10;0.10;;;;;;;16.79;62.27;100874.59;2036683;29;20058;-64
2022/11/15 03:03:38;;;;;;;0.10;0.10;;;;;;;16.76;62.35;100872.63;2034682;29;20533;-63
2022/11/15 03:05:08;;;;;;;0.03;0.03;;;;;;;16.80;62.34;100865.25;2036434;29;20041;-64
2022/11/15 03:06:39;;;;;;;0.10;0.10;;;;;;;16.79;62.43;100860.97;2037543;29;20054;-64
2022/11/15 03:08:05;;;;;;;0.03;0.03;;;;;;;16.80;62.32;100870.69;2033632;28;20104;-64
2022/11/15 03:09:34;;;;;;;0.00;0.00;;;;;;;16.80;62.26;100870.69;2036417;29;20052;-64
2022/11/15 03:11:04;;;;;;;0.08;0.08;;;;;;;16.79;62.19;100852.78;2037246;29;20126;-64
2022/11/15 03:12:31;;;;;;;0.10;0.10;;;;;;;16.79;62.29;100859.00;2038948;29;20058;-64
2022/11/15 03:13:58;;;;;;;0.08;0.08;;;;;;;16.79;62.30;100863.69;2040004;29;20055;-65
2022/11/15 03:15:24;;;;;;;0.10;0.10;;;;;;;16.81;62.28;100866.84;2039218;29;20044;-64
2022/11/15 03:16:50;;;;;;;0.10;0.10;;;;;;;16.80;62.08;100862.53;2035583;29;20147;-64
2022/11/15 03:18:21;;;;;;;0.00;0.00;;;;;;;16.78;62.18;100852.00;2037500;29;20127;-64
2022/11/15 03:19:46;;;;;;;0.08;0.08;;;;;;;16.79;62.40;100852.78;2041147;29;20534;-64
2022/11/15 03:21:11;;;;;;;0.10;0.10;;;;;;;16.79;62.48;100841.88;2037037;29;20063;-64
2022/11/15 03:22:38;;;;;;;0.08;0.08;;;;;;;16.80;62.32;100843.44;2039302;29;20053;-64
2022/11/15 03:24:04;;;;;;;0.00;0.00;;;;;;;16.80;62.33;100844.22;2038894;29;20404;-63
2022/11/15 03:25:29;;;;;;;0.10;0.10;;;;;;;16.80;62.21;100838.78;2036937;29;20084;-64
2022/11/15 03:26:51;;;;;;;0.10;0.10;;;;;;;16.81;62.26;100853.19;2037514;29;20100;-64
2022/11/15 03:28:17;;;;;;;0.00;0.00;;;;;;;16.81;62.35;100847.75;2038934;29;20051;-64
2022/11/15 03:29:42;;;;;;;0.00;0.00;;;;;;;16.81;62.28;100845.78;2038218;29;20058;-63
2022/11/15 03:31:46;;;;;;;0.00;0.00;;;;;;;16.81;62.20;100845.03;2036064;29;20114;-64
2022/11/15 03:32:51;;;;;;;0.03;0.03;;;;;;;16.78;62.59;100840.31;2037871;29;20103;-64
2022/11/15 03:34:19;;;;;;;0.05;0.05;;;;;;;16.79;62.20;100841.88;2037892;29;20141;-64
2022/11/15 03:35:45;;;;;;;0.10;0.10;;;;;;;16.80;62.28;100848.88;2039834;29;20096;-64
2022/11/15 03:37:07;;;;;;;0.08;0.08;;;;;;;16.80;62.31;100849.69;2037364;29;20094;-63
2022/11/15 03:38:32;;;;;;;0.10;0.10;;;;;;;16.80;62.14;100844.22;2036403;29;20440;-64
2022/11/15 03:39:53;;;;;;;0.10;0.10;;;;;;;16.79;62.21;100848.09;2037971;29;20098;-64
2022/11/15 03:41:20;;;;;;;0.08;0.08;;;;;;;16.81;62.15;100853.19;2035518;29;20104;-64
2022/11/15 03:42:46;;;;;;;0.10;0.10;;;;;;;16.80;62.19;100846.94;2039523;29;20102;-65
2022/11/15 03:44:15;;;;;;;0.00;0.00;;;;;;;16.79;62.19;100850.81;2039438;29;20058;-64
2022/11/15 03:45:43;;;;;;;0.00;0.00;;;;;;;16.79;62.11;100847.34;2038884;29;20135;-64
2022/11/15 03:47:10;;;;;;;0.08;0.08;;;;;;;16.79;62.40;100841.88;2036322;29;20115;-64
2022/11/15 03:48:37;;;;;;;0.00;0.00;;;;;;;16.78;62.37;100843.81;2035746;29;20131;-64
2022/11/15 03:50:02;;;;;;;0.00;0.00;;;;;;;16.77;62.36;100833.28;2039649;29;20055;-64
2022/11/15 03:51:22;;;;;;;0.00;0.00;;;;;;;16.79;62.36;100837.19;2039591;29;20525;-64
2022/11/15 03:52:46;;;;;;;0.08;0.08;;;;;;;16.81;62.31;100831.38;2039554;29;20047;-64
2022/11/15 03:54:07;;;;;;;0.00;0.00;;;;;;;16.80;62.21;100833.31;2039043;29;20135;-64
2022/11/15 03:55:28;;;;;;;0.10;0.10;;;;;;;16.80;62.06;100829.81;2036881;29;20060;-64
2022/11/15 03:56:48;;;;;;;0.10;0.10;;;;;;;16.80;62.29;100827.88;2035387;29;20050;-64
2022/11/15 03:58:09;;;;;;;0.00;0.00;;;;;;;16.79;62.21;100818.09;2039185;29;20176;-65
2022/11/15 03:59:30;;;;;;;0.08;0.08;;;;;;;16.80;62.31;100825.13;2039123;29;20147;-64
2022/11/15 04:00:51;;;;;;;0.08;0.08;;;;;;;16.80;62.20;100832.53;2037286;29;20059;-64
2022/11/15 04:02:12;;;;;;;0.00;0.00;;;;;;;16.79;62.18;100825.53;2035526;29;20048;-64
2022/11/15 04:03:35;;;;;;;0.00;0.00;;;;;;;16.81;62.30;100821.22;2035620;29;20047;-64
2022/11/15 04:04:56;;;;;;;0.00;0.00;;;;;;;16.81;62.21;100817.75;2036509;29;20051;-64
2022/11/15 04:06:18;;;;;;;0.00;0.00;;;;;;;16.80;62.29;100814.22;2042880;29;20121;-64
2022/11/15 04:07:38;;;;;;;0.00;0.00;;;;;;;16.80;62.25;100816.16;2039859;29;20057;-64
2022/11/15 04:09:00;;;;;;;0.10;0.10;;;;;;;16.81;62.20;100812.28;2036951;29;21025;-64
2022/11/15 04:10:21;;;;;;;0.03;0.03;;;;;;;16.80;62.20;100819.69;2035173;29;20048;-65
2022/11/15 04:11:42;;;;;;;0.10;0.10;;;;;;;16.81;62.09;100820.47;2035726;29;20119;-64
2022/11/15 04:13:04;;;;;;;0.05;0.05;;;;;;;16.80;62.39;100816.97;2028389;29;20060;-64
2022/11/15 04:14:24;;;;;;;0.00;0.00;;;;;;;16.80;62.17;100821.63;2033993;29;20059;-64
2022/11/15 04:15:45;;;;;;;0.00;0.00;;;;;;;16.81;62.21;100823.19;2038682;29;20392;-64
2022/11/15 04:17:06;;;;;;;0.00;0.00;;;;;;;16.81;62.27;100817.75;2034420;29;20123;-64
2022/11/15 04:18:27;;;;;;;0.10;0.10;;;;;;;16.80;62.12;100818.91;2036255;29;20054;-64
2022/11/15 04:24:50;;;;;;;0.00;0.00;;;;;;;16.72;62.31;100820.81;2036019;29;20090;-64
2022/11/15 04:26:14;;;;;;;0.05;0.05;;;;;;;16.75;62.29;100819.25;2038741;29;20101;-64
2022/11/15 04:27:36;;;;;;;0.00;0.00;;;;;;;16.75;62.52;100819.25;2035528;29;20167;-64
2022/11/15 04:30:37;;;;;;;0.03;0.03;;;;;;;16.74;62.36;100818.50;2035800;29;21785;-65
2022/11/15 04:31:57;;;;;;;0.00;0.00;;;;;;;16.75;62.17;100825.50;2036260;29;20111;-65
2022/11/15 04:33:18;;;;;;;0.10;0.10;;;;;;;16.75;62.16;100821.97;2037486;29;20103;-64
2022/11/15 04:34:39;;;;;;;0.17;0.17;;;;;;;16.77;62.27;100827.84;2035245;29;20052;-64
2022/11/15 04:37:41;;;;;;;0.05;0.05;;;;;;;16.74;62.37;100823.16;2039433;29;20055;-64
2022/11/15 04:39:08;;;;;;;0.00;0.00;;;;;;;16.76;62.38;100820.84;2037220;29;20138;-65
2022/11/15 04:40:29;;;;;;;0.00;0.00;;;;;;;16.76;62.25;100824.31;2037980;29;20079;-64
2022/11/15 04:41:50;;;;;;;0.00;0.00;;;;;;;16.76;62.43;100831.75;2035617;29;20522;-64
2022/11/15 04:43:11;;;;;;;0.00;0.00;;;;;;;16.75;62.49;100828.22;2035042;29;20115;-64
2022/11/15 04:44:31;;;;;;;0.00;0.00;;;;;;;16.76;62.35;100827.06;2040936;29;20510;-64
2022/11/15 04:45:52;;;;;;;;;;;;;;;16.59;62.41;100826.94;2037180;29;20075;-64
2022/11/15 04:47:14;;;;;;;0.00;0.00;;;;;;;16.69;62.51;100826.25;2036795;29;19957;-64
2022/11/15 04:48:34;;;;;;;0.00;0.00;;;;;;;16.72;62.33;100820.81;2036719;29;20179;-64
2022/11/15 04:49:55;;;;;;;0.00;0.00;;;;;;;16.74;62.26;100820.44;2035108;29;20096;-64
2022/11/15 04:51:18;;;;;;;0.08;0.08;;;;;;;16.75;62.25;100819.25;2038443;29;20055;-64
2022/11/15 04:52:39;;;;;;;0.00;0.00;;;;;;;16.74;62.35;100812.25;2035199;29;20052;-64
2022/11/15 04:54:00;;;;;;;0.00;0.00;;;;;;;16.72;62.46;100822.75;2040153;28;20052;-64
2022/11/15 04:55:22;;;;;;;0.00;0.00;;;;;;;16.75;62.25;100824.72;2037426;29;20052;-64
2022/11/15 04:56:42;;;;;;;0.00;0.00;;;;;;;16.76;61.82;100826.28;2036578;29;20047;-64
2022/11/15 04:58:04;;;;;;;0.00;0.00;;;;;;;16.74;62.25;100817.69;2033463;29;20062;-64
2022/11/15 04:59:25;;;;;;;0.20;0.20;;;;;;;16.74;62.05;100815.75;2037153;29;20076;-64
2022/11/15 05:00:46;;;;;;;0.10;0.10;;;;;;;16.76;62.26;100818.09;2040483;29;20387;-64
2022/11/15 05:02:07;;;;;;;0.10;0.10;;;;;;;16.75;62.26;100811.88;2038309;29;20058;-64
2022/11/15 05:05:03;;;;;;;0.10;0.10;;;;;;;16.75;62.38;100813.81;2022523;29;20421;-64
2022/11/15 05:06:25;;;;;;;0.00;0.00;;;;;;;16.75;62.21;100798.22;2040666;29;20106;-64
2022/11/15 05:07:47;;;;;;;0.10;0.10;;;;;;;16.75;62.13;100802.91;2036702;29;20058;-66
2022/11/15 05:09:07;;;;;;;0.03;0.03;;;;;;;16.75;62.30;100797.44;2042384;29;20127;-65
2022/11/15 05:10:29;;;;;;;0.00;0.00;;;;;;;16.75;62.19;100808.34;2038255;29;20468;-64
2022/11/15 05:11:49;;;;;;;0.00;0.00;;;;;;;16.76;62.23;100801.75;2037678;29;20059;-64
2022/11/15 05:13:10;;;;;;;0.03;0.03;;;;;;;16.76;62.45;100804.47;2037967;29;20063;-64
2022/11/15 05:14:31;;;;;;;0.10;0.10;;;;;;;16.75;62.39;100803.69;2043347;29;20044;-65
2022/11/15 05:15:52;;;;;;;0.10;0.10;;;;;;;16.75;62.37;100805.63;2041935;29;20062;-64
2022/11/15 05:17:13;;;;;;;0.10;0.10;;;;;;;16.76;62.24;100799.78;2040775;29;20098;-64
2022/11/15 05:18:34;;;;;;;0.00;0.00;;;;;;;16.76;62.29;100804.47;2042234;29;20055;-64
2022/11/15 05:19:56;;;;;;;0.00;0.00;;;;;;;16.75;62.39;100790.06;2035819;29;20055;-64
2022/11/15 05:21:16;;;;;;;0.00;0.00;;;;;;;16.76;62.18;100793.56;2039096;29;20107;-64
2022/11/15 05:22:39;;;;;;;0.00;0.00;;;;;;;16.77;62.26;100797.84;2040356;29;20856;-64
2022/11/15 05:24:00;;;;;;;0.10;0.10;;;;;;;16.75;62.07;100798.22;2039943;29;20058;-64
2022/11/15 05:25:21;;;;;;;0.00;0.00;;;;;;;16.76;62.21;100799.03;2037754;29;20111;-64
2022/11/15 05:26:42;;;;;;;0.08;0.08;;;;;;;16.76;62.23;100796.28;2036269;29;20136;-64
2022/11/15 05:28:03;;;;;;;0.00;0.00;;;;;;;16.77;62.26;100800.56;2035444;29;20139;-64
2022/11/15 05:29:25;;;;;;;0.10;0.10;;;;;;;16.77;62.15;100806.03;2038438;29;20050;-65
2022/11/15 05:30:45;;;;;;;0.10;0.10;;;;;;;16.77;62.25;100795.13;2042071;29;20058;-64
2022/11/15 05:32:07;;;;;;;0.03;0.03;;;;;;;16.77;62.25;100803.31;2039749;29;20845;-64
2022/11/15 05:33:27;;;;;;;0.10;0.10;;;;;;;16.76;62.32;100799.03;2036194;29;20060;-64
2022/11/15 05:34:49;;;;;;;0.10;0.10;;;;;;;16.75;62.24;100798.22;2037592;29;20052;-64
2022/11/15 05:36:18;;;;;;;0.10;0.10;;;;;;;16.76;62.17;100810.69;2037335;29;20062;-65
2022/11/15 05:37:41;;;;;;;0.03;0.03;;;;;;;16.76;62.16;100809.94;2039188;29;20126;-65
2022/11/15 05:39:04;;;;;;;0.08;0.08;;;;;;;16.76;62.24;100807.19;2042210;29;20079;-64
2022/11/15 05:40:24;;;;;;;0.10;0.10;;;;;;;16.76;62.29;100816.16;2038705;29;20058;-65
2022/11/15 05:41:49;;;;;;;0.05;0.05;;;;;;;16.76;62.35;100807.97;2037266;29;20060;-64
2022/11/15 05:43:11;;;;;;;0.00;0.00;;;;;;;16.76;62.20;100807.19;2036563;29;20052;-65
2022/11/15 05:44:32;;;;;;;0.05;0.05;;;;;;;16.76;62.26;100809.94;2038561;29;20058;-64
2022/11/15 05:45:54;;;;;;;0.08;0.08;;;;;;;16.77;62.11;100811.47;2042246;29;20107;-65
2022/11/15 05:47:18;;;;;;;0.00;0.00;;;;;;;16.77;62.20;100811.47;2039849;29;20050;-64
2022/11/15 05:48:43;;;;;;;0.10;0.10;;;;;;;16.77;62.26;100806.03;2038550;29;20056;-64
2022/11/15 05:50:04;;;;;;;0.10;0.10;;;;;;;16.73;62.40;100803.28;2036870;29;20078;-65
2022/11/15 05:51:27;;;;;;;0.10;0.10;;;;;;;16.76;62.26;100804.47;2038732;29;20810;-65
2022/11/15 05:52:52;;;;;;;0.10;0.10;;;;;;;16.77;62.19;100806.03;2042517;29;20051;-64
2022/11/15 05:54:13;;;;;;;0.00;0.00;;;;;;;16.75;62.12;100808.34;2041805;29;20087;-65
2022/11/15 05:55:34;;;;;;;0.00;0.00;;;;;;;16.76;62.28;100807.19;2039638;29;20047;-64
2022/11/15 05:56:55;;;;;;;0.08;0.08;;;;;;;16.76;62.13;100802.50;2038457;29;20169;-64
2022/11/15 05:58:16;;;;;;;0.10;0.10;;;;;;;16.76;62.17;100812.66;2036094;29;20062;-64
2022/11/15 05:59:40;;;;;;;0.05;0.05;;;;;;;16.76;62.41;100804.47;2036293;29;20082;-65
2022/11/15 06:01:01;;;;;;;0.00;0.00;;;;;;;16.76;62.25;100804.47;2043140;29;20057;-64
2022/11/15 06:03:39;;;;;;;0.10;0.10;;;;;;;16.65;62.32;100809.09;2032658;29;20159;-64
2022/11/15 06:05:00;;;;;;;0.03;0.03;;;;;;;16.69;62.45;100801.69;2034009;29;20079;-64
2022/11/15 06:06:22;;;;;;;0.10;0.10;;;;;;;16.70;62.40;100800.56;2036035;29;21310;-65
2022/11/15 06:07:43;;;;;;;0.00;0.00;;;;;;;16.72;62.41;100812.63;2039555;29;20060;-65
2022/11/15 06:09:06;;;;;;;0.00;0.00;;;;;;;16.73;62.28;100807.97;2041671;29;20495;-65
2022/11/15 06:10:27;;;;;;;0.00;0.00;;;;;;;16.73;62.30;100810.69;2038351;29;20047;-64
2022/11/15 06:11:49;;;;;;;0.00;0.00;;;;;;;16.74;62.27;100812.25;2037363;29;20082;-64
2022/11/15 06:13:10;;;;;;;0.00;0.00;;;;;;;16.73;62.32;100811.47;2035225;29;20059;-64
2022/11/15 06:14:31;;;;;;;0.00;0.00;;;;;;;16.74;62.17;100806.78;2035519;29;20059;-65
2022/11/15 06:15:56;;;;;;;0.03;0.03;;;;;;;16.73;62.22;100811.47;2038040;29;20407;-65
2022/11/15 06:17:17;;;;;;;0.10;0.10;;;;;;;16.73;62.32;100808.72;2038139;29;20058;-67
2022/11/15 06:18:39;;;;;;;0.00;0.00;;;;;;;16.70;62.19;100808.75;2039340;29;20145;-66
2022/11/15 06:20:01;;;;;;;0.00;0.00;;;;;;;16.74;62.40;100817.69;2037681;29;20093;-65
2022/11/15 06:21:22;;;;;;;0.00;0.00;;;;;;;16.74;62.18;100812.25;2036791;29;20450;-65
2022/11/15 06:22:43;;;;;;;0.00;0.00;;;;;;;16.73;62.22;100811.47;2036630;29;20143;-65
2022/11/15 06:24:07;;;;;;;0.13;0.13;;;;;;;16.75;62.16;100819.25;2042552;29;20513;-65
2022/11/15 06:25:29;;;;;;;0.00;0.00;;;;;;;16.73;62.14;100827.81;2037142;29;20681;-65
2022/11/15 06:26:51;;;;;;;0.08;0.08;;;;;;;16.73;62.36;100819.63;2037507;29;20051;-65
2022/11/15 06:28:11;;;;;;;0.10;0.10;;;;;;;16.75;62.21;100824.72;2038369;29;20538;-65
2022/11/15 06:29:32;;;;;;;0.00;0.00;;;;;;;16.75;62.35;100824.72;2035411;29;20059;-65
2022/11/15 06:30:53;;;;;;;0.00;0.00;;;;;;;16.73;62.29;100822.38;2038894;29;20064;-65
2022/11/15 06:32:14;;;;;;;;;;;;;;;16.55;62.53;100820.72;2038284;29;20052;-65
2022/11/15 06:33:35;;;;;;;0.00;0.00;;;;;;;16.66;62.44;100822.34;2041527;29;20014;-65
2022/11/15 06:34:56;;;;;;;0.00;0.00;;;;;;;16.69;62.43;100829.75;2039245;29;20059;-65
2022/11/15 06:36:17;;;;;;;;;;;;;;;16.54;62.76;100827.34;2037567;29;20067;-65
2022/11/15 06:37:39;;;;;;;0.00;0.00;;;;;;;16.64;62.49;100819.22;2032681;29;20034;-65
2022/11/15 06:39:00;;;;;;;0.00;0.00;;;;;;;16.67;62.44;100821.16;2039707;29;20388;-65
2022/11/15 06:40:23;;;;;;;0.05;0.05;;;;;;;16.69;62.21;100820.78;2040708;29;20083;-65
2022/11/15 06:41:44;;;;;;;0.00;0.00;;;;;;;16.68;62.33;100825.44;2037757;29;20062;-65
2022/11/15 06:43:06;;;;;;;0.00;0.00;;;;;;;16.69;62.13;100818.06;2037873;29;20100;-65
2022/11/15 06:44:27;;;;;;;0.08;0.08;;;;;;;16.69;62.38;100820.78;2034101;29;20139;-65